GMTT/TNG METAR and TAF weather

Enter ICAO airport designator
Station Type Date Time Source
GMTT METAR 2020/12/05 06:30 UTC NOAA

GMTT 050630Z 32014KT 9999 SCT016 SCT026 11/06 Q1007 NOSIG


Station Type Date Time Source
GMTT Decoded METAR 2020/12/05 06:30 UTC NOAA

Tanger Aerodrome , Morocco (GMTT) 35-44N 005-54W 21M
Dec 05, 2020 - 01:30 AM EST / 2020.12.05 0630 UTC
Wind: from the NW (320 degrees) at 16 MPH (14 KT):0
Visibility: greater than 7 mile(s):0
Sky conditions: partly cloudy
Temperature: 51 F (11 C)
Dew Point: 42 F (6 C)
Relative Humidity: 71%
Pressure (altimeter): 29.74 in. Hg (1007 hPa)
ob: GMTT 050630Z 32014KT 9999 SCT016 SCT026 11/06 Q1007 NOSIG
cycle: 6

Station Type Date Time Source
GMTT TAF 2020/12/05 06:18 UTC NOAA

TAF GMTT 050500Z 0506/0612 32014KT 9999 SCT020 BKN026
BECMG 0518/0521 22010KT
TEMPO 0522/0606 3000 RA SCT010 SCT016 FEW020TCU BKN023

Example: see airport list